Time;durP1;ratioP1;P1;durP2;ratioP2;P2;SDS_P1;SDS_P2;PMS_P1;PMS_P2;Temp;Humidity;BMP_temperature;BMP_pressure;BME280_temperature;BME280_humidity;BME280_pressure;Samples;Min_cycle;Max_cycle;Signal;HPM_P1;HPM_P2
2023/12/23 00:00:03;;;;;;;1.23;0.30;;;10.00;99.90;;;;;;5031816;28;20281;-60
2023/12/23 00:02:30;;;;;;;1.63;0.40;;;10.00;99.90;;;;;;5032526;28;20671;-61
2023/12/23 00:04:58;;;;;;;0.77;0.38;;;10.00;99.90;;;;;;5032233;28;20215;-60
2023/12/23 00:07:26;;;;;;;0.70;0.17;;;10.00;99.90;;;;;;5032263;28;20237;-60
2023/12/23 00:09:54;;;;;;;0.75;0.30;;;9.80;99.90;;;;;;5031597;28;20298;-60
2023/12/23 00:12:22;;;;;;;0.30;0.10;;;9.30;99.90;;;;;;5030040;28;20206;-60
2023/12/23 00:14:50;;;;;;;0.20;0.20;;;8.90;99.90;;;;;;5031709;28;20221;-59
2023/12/23 00:17:19;;;;;;;0.65;0.35;;;8.50;99.90;;;;;;5031674;28;20219;-60
2023/12/23 00:19:47;;;;;;;1.55;0.20;;;8.30;99.90;;;;;;5032046;28;20225;-60
2023/12/23 00:22:15;;;;;;;0.45;0.20;;;8.20;99.90;;;;;;5026901;28;20207;-60
2023/12/23 00:24:43;;;;;;;0.10;0.10;;;8.10;99.90;;;;;;5028700;28;20664;-60
2023/12/23 00:27:11;;;;;;;0.30;0.10;;;8.00;99.90;;;;;;5027942;28;20322;-60
2023/12/23 00:29:39;;;;;;;1.38;0.20;;;8.00;99.90;;;;;;5029770;28;20213;-58
2023/12/23 00:32:07;;;;;;;1.45;0.20;;;8.00;99.90;;;;;;5029342;28;20313;-59
2023/12/23 00:34:36;;;;;;;1.08;0.20;;;8.00;99.90;;;;;;5032136;28;20224;-60
2023/12/23 00:37:04;;;;;;;0.70;0.20;;;8.00;99.90;;;;;;5031046;28;20322;-60
2023/12/23 00:39:32;;;;;;;1.05;0.22;;;8.00;99.90;;;;;;5031671;28;20211;-60
2023/12/23 00:42:00;;;;;;;1.85;0.25;;;8.00;99.90;;;;;;5031379;28;20245;-60
2023/12/23 00:44:28;;;;;;;1.75;0.20;;;8.00;99.90;;;;;;5031484;28;20298;-60
2023/12/23 00:46:56;;;;;;;1.27;0.40;;;8.00;99.90;;;;;;5031102;28;20684;-59
2023/12/23 00:49:24;;;;;;;2.47;0.20;;;8.00;99.90;;;;;;5031297;28;20229;-60
2023/12/23 00:51:53;;;;;;;0.93;0.17;;;8.00;99.90;;;;;;5026918;28;20705;-60
2023/12/23 00:54:23;;;;;;;0.30;0.22;;;8.00;99.90;;;;;;5031009;28;20297;-60
2023/12/23 00:56:50;;;;;;;1.08;0.40;;;8.00;99.90;;;;;;5031101;28;20222;-61
2023/12/23 00:59:18;;;;;;;2.95;0.50;;;8.00;99.90;;;;;;5031340;28;20234;-60
2023/12/23 01:01:46;;;;;;;0.30;0.30;;;8.00;99.90;;;;;;5031314;28;20281;-60
2023/12/23 01:04:14;;;;;;;0.82;0.55;;;8.00;99.90;;;;;;5031616;28;20210;-60
2023/12/23 01:06:42;;;;;;;0.35;0.30;;;8.00;99.90;;;;;;5030891;28;20253;-60
2023/12/23 01:09:12;;;;;;;1.48;0.30;;;8.00;99.90;;;;;;5031166;28;20581;-59
2023/12/23 01:11:39;;;;;;;0.55;0.20;;;8.00;99.90;;;;;;5028613;28;20633;-60
2023/12/23 01:14:08;;;;;;;0.60;0.20;;;8.00;99.90;;;;;;5029068;28;20290;-60
2023/12/23 01:16:36;;;;;;;2.60;0.47;;;8.10;99.90;;;;;;5030651;28;20239;-60
2023/12/23 01:19:04;;;;;;;0.85;0.32;;;8.10;99.90;;;;;;5026481;28;20214;-60
2023/12/23 01:21:32;;;;;;;2.00;0.25;;;8.10;99.90;;;;;;5030914;28;20675;-60
2023/12/23 01:24:00;;;;;;;2.92;0.40;;;8.00;99.90;;;;;;5031062;28;20242;-60
2023/12/23 01:26:30;;;;;;;1.90;0.30;;;8.10;99.90;;;;;;5030502;28;20586;-61
2023/12/23 01:29:00;;;;;;;4.43;0.30;;;8.10;99.90;;;;;;5031001;28;20253;-61
2023/12/23 01:31:28;;;;;;;3.55;0.60;;;8.10;99.90;;;;;;5027809;28;20214;-60
2023/12/23 01:33:56;;;;;;;1.48;0.50;;;8.10;99.90;;;;;;5022570;28;20241;-60
2023/12/23 01:36:24;;;;;;;3.30;0.40;;;8.10;99.90;;;;;;5030852;28;20237;-60
2023/12/23 01:38:52;;;;;;;1.65;0.52;;;8.20;99.90;;;;;;5030836;28;20648;-59
2023/12/23 01:41:19;;;;;;;1.85;0.40;;;8.20;99.90;;;;;;5030499;28;20248;-60
2023/12/23 01:43:49;;;;;;;5.57;0.52;;;8.20;99.90;;;;;;5030410;28;20260;-61
2023/12/23 01:46:17;;;;;;;1.00;0.30;;;8.20;99.90;;;;;;5030406;28;20226;-60
2023/12/23 01:48:45;;;;;;;6.38;0.95;;;8.10;99.90;;;;;;5031235;28;20234;-60
2023/12/23 01:51:13;;;;;;;1.73;0.25;;;8.10;99.90;;;;;;5030512;28;20209;-60
2023/12/23 01:53:41;;;;;;;2.42;0.43;;;8.10;99.90;;;;;;5030803;28;20650;-60
2023/12/23 01:56:09;;;;;;;1.77;0.47;;;8.10;99.90;;;;;;5030417;28;20257;-61
2023/12/23 01:58:37;;;;;;;5.32;0.40;;;8.10;99.90;;;;;;5030680;28;20638;-60
2023/12/23 02:01:06;;;;;;;1.10;0.30;;;8.20;99.90;;;;;;5030051;28;20202;-60
2023/12/23 02:03:34;;;;;;;3.17;0.70;;;8.20;99.90;;;;;;5030780;28;20248;-59
2023/12/23 02:06:02;;;;;;;1.95;0.50;;;8.20;99.90;;;;;;5030263;28;20241;-59
2023/12/23 02:08:30;;;;;;;5.20;0.60;;;8.20;99.90;;;;;;5031164;28;20223;-60
2023/12/23 02:11:04;;;;;;;1.10;0.50;;;8.20;99.90;;;;;;5032610;28;20269;-60
2023/12/23 02:13:34;;;;;;;3.05;0.60;;;8.20;99.90;;;;;;5031627;28;20199;-60
2023/12/23 02:16:02;;;;;;;1.83;0.80;;;8.20;99.90;;;;;;5034014;28;20222;-60
2023/12/23 02:18:31;;;;;;;1.90;0.63;;;8.20;99.90;;;;;;5033262;28;20268;-58
2023/12/23 02:21:01;;;;;;;5.22;0.55;;;8.20;99.90;;;;;;5026698;28;20578;-60
2023/12/23 02:23:28;;;;;;;2.05;0.60;;;8.20;99.90;;;;;;5033142;28;20203;-60
2023/12/23 02:25:59;;;;;;;1.17;0.75;;;8.20;99.90;;;;;;5031803;28;20763;-60
2023/12/23 02:28:27;;;;;;;5.72;0.60;;;8.20;99.90;;;;;;5034206;28;20908;-60
2023/12/23 02:30:55;;;;;;;1.77;0.50;;;8.10;99.90;;;;;;5031951;28;20642;-60
2023/12/23 02:33:23;;;;;;;1.13;0.60;;;8.10;99.90;;;;;;5032470;28;20206;-60
2023/12/23 02:35:52;;;;;;;1.70;0.38;;;8.10;99.90;;;;;;5025988;28;20214;-61
2023/12/23 02:38:22;;;;;;;1.55;0.40;;;8.10;99.90;;;;;;5033859;28;20202;-61
2023/12/23 02:40:50;;;;;;;1.10;0.40;;;8.10;99.90;;;;;;5033814;28;20215;-60
2023/12/23 02:43:18;;;;;;;2.10;0.50;;;8.10;99.90;;;;;;5032975;28;20257;-60
2023/12/23 02:45:46;;;;;;;2.30;0.40;;;8.20;99.90;;;;;;5033136;28;20226;-61
2023/12/23 02:48:14;;;;;;;0.80;0.30;;;8.10;99.90;;;;;;5033891;28;20255;-60
2023/12/23 02:50:42;;;;;;;3.85;0.82;;;8.10;99.90;;;;;;5033644;28;20260;-60
2023/12/23 02:53:10;;;;;;;0.43;0.35;;;8.10;99.90;;;;;;5033570;28;21109;-60
2023/12/23 02:55:39;;;;;;;2.90;0.50;;;8.10;99.90;;;;;;5033280;28;20229;-60
2023/12/23 02:58:08;;;;;;;1.85;0.40;;;8.10;99.90;;;;;;5033553;28;20256;-60
2023/12/23 03:00:35;;;;;;;3.30;0.63;;;8.10;99.90;;;;;;5031916;28;20321;-61
2023/12/23 03:03:04;;;;;;;1.88;0.73;;;8.10;99.90;;;;;;5033548;28;20700;-61
2023/12/23 03:05:31;;;;;;;4.15;0.57;;;8.10;99.90;;;;;;5033173;28;20202;-60
2023/12/23 03:07:59;;;;;;;4.72;0.60;;;8.00;99.90;;;;;;5033542;28;20218;-60
2023/12/23 03:10:27;;;;;;;5.43;0.70;;;8.00;99.90;;;;;;5032917;28;20773;-61
2023/12/23 03:12:57;;;;;;;3.28;0.40;;;8.00;99.90;;;;;;5033344;28;20234;-60
2023/12/23 03:15:24;;;;;;;5.18;0.80;;;8.00;99.90;;;;;;5032801;28;20289;-60
2023/12/23 03:17:53;;;;;;;3.00;0.43;;;8.00;99.90;;;;;;5033394;28;20351;-60
2023/12/23 03:20:22;;;;;;;3.47;0.60;;;8.00;99.90;;;;;;5031594;28;20210;-60
2023/12/23 03:22:50;;;;;;;6.35;0.70;;;7.90;99.90;;;;;;5033820;28;20221;-59
2023/12/23 03:25:19;;;;;;;2.35;0.50;;;7.90;99.90;;;;;;5032312;28;20206;-60
2023/12/23 03:27:47;;;;;;;0.55;0.50;;;7.90;99.90;;;;;;5033566;28;20222;-60
2023/12/23 03:30:16;;;;;;;3.45;0.73;;;7.90;99.90;;;;;;5032795;28;20262;-60
2023/12/23 03:32:44;;;;;;;2.05;0.40;;;7.90;99.90;;;;;;5033362;28;20209;-61
2023/12/23 03:35:12;;;;;;;3.97;0.22;;;7.90;99.90;;;;;;5032595;28;20211;-61
2023/12/23 03:37:40;;;;;;;5.05;0.60;;;7.90;99.90;;;;;;5032836;28;20284;-61
2023/12/23 03:40:09;;;;;;;2.40;0.45;;;7.90;99.90;;;;;;5033422;28;20209;-60
2023/12/23 03:42:38;;;;;;;5.18;0.40;;;7.90;99.90;;;;;;5032906;28;20241;-60
2023/12/23 03:45:07;;;;;;;5.43;0.47;;;7.90;99.90;;;;;;5032583;28;20622;-60
2023/12/23 03:47:38;;;;;;;1.75;0.40;;;7.90;99.90;;;;;;5030013;28;20222;-59
2023/12/23 03:50:07;;;;;;;2.10;0.50;;;7.90;99.90;;;;;;5032783;28;20674;-60
2023/12/23 03:52:35;;;;;;;3.03;0.60;;;7.90;99.90;;;;;;5024334;28;20215;-59
2023/12/23 03:55:03;;;;;;;4.10;1.10;;;7.90;99.90;;;;;;5032129;28;20284;-60
2023/12/23 03:57:31;;;;;;;4.28;0.70;;;7.80;99.90;;;;;;5032214;28;20230;-60
2023/12/23 03:59:59;;;;;;;4.20;0.93;;;7.90;99.90;;;;;;5032269;28;20260;-60
2023/12/23 04:02:27;;;;;;;4.40;0.90;;;7.90;99.90;;;;;;5032355;28;20627;-60
2023/12/23 04:04:56;;;;;;;1.65;0.77;;;8.00;99.90;;;;;;5031888;28;20238;-60
2023/12/23 04:07:24;;;;;;;4.70;1.25;;;8.00;99.90;;;;;;5032483;28;20223;-61
2023/12/23 04:09:52;;;;;;;1.40;0.85;;;8.00;99.90;;;;;;5032120;28;20226;-60
2023/12/23 04:12:20;;;;;;;3.80;0.82;;;8.00;99.90;;;;;;5032197;28;20724;-60
2023/12/23 04:14:49;;;;;;;4.25;0.95;;;8.10;99.90;;;;;;5031795;28;20297;-60
2023/12/23 04:17:17;;;;;;;2.90;0.98;;;8.20;99.90;;;;;;5031326;28;20273;-61
2023/12/23 04:19:45;;;;;;;4.55;1.40;;;8.20;99.90;;;;;;5031995;28;20207;-60
2023/12/23 04:22:14;;;;;;;5.25;1.55;;;8.30;99.90;;;;;;5031930;28;20218;-60
2023/12/23 04:24:42;;;;;;;5.72;1.48;;;8.40;99.90;;;;;;5031646;28;20276;-60
2023/12/23 04:27:10;;;;;;;3.75;0.90;;;8.40;99.90;;;;;;5031495;28;20675;-60
2023/12/23 04:29:38;;;;;;;3.40;0.88;;;8.40;99.90;;;;;;5032063;28;20250;-60
2023/12/23 04:32:06;;;;;;;2.38;0.80;;;8.40;99.90;;;;;;5030998;28;20676;-59
2023/12/23 04:34:34;;;;;;;5.63;1.10;;;8.50;99.90;;;;;;5032223;28;20214;-60
2023/12/23 04:37:02;;;;;;;4.50;0.95;;;8.50;99.90;;;;;;5030349;28;20454;-59
2023/12/23 04:39:31;;;;;;;3.67;1.25;;;8.60;99.90;;;;;;5030446;28;20284;-60
2023/12/23 04:41:59;;;;;;;1.92;0.70;;;8.60;99.90;;;;;;5031902;28;20633;-60
2023/12/23 04:44:27;;;;;;;5.30;1.25;;;8.60;99.90;;;;;;5031412;28;20240;-61
2023/12/23 04:46:55;;;;;;;3.70;0.70;;;8.60;99.90;;;;;;5031308;28;20679;-61
2023/12/23 04:49:24;;;;;;;4.07;0.95;;;8.60;99.90;;;;;;5031656;28;20222;-60
2023/12/23 04:51:52;;;;;;;3.85;0.70;;;8.70;99.90;;;;;;5031768;28;20280;-60
2023/12/23 04:54:20;;;;;;;3.17;0.50;;;8.70;99.90;;;;;;5031513;28;20253;-60
2023/12/23 04:56:49;;;;;;;4.30;0.60;;;8.70;99.90;;;;;;5030897;28;20337;-60
2023/12/23 04:59:17;;;;;;;1.45;0.63;;;8.70;99.90;;;;;;5031154;28;20306;-60
2023/12/23 05:01:45;;;;;;;1.52;0.52;;;8.70;99.90;;;;;;5031468;28;20207;-59
2023/12/23 05:04:13;;;;;;;1.88;0.80;;;8.70;99.90;;;;;;5031404;28;20202;-59
2023/12/23 05:06:41;;;;;;;4.88;0.68;;;8.70;99.90;;;;;;5030852;28;20222;-60
2023/12/23 05:09:08;;;;;;;2.08;0.70;;;8.70;99.90;;;;;;5031237;28;20310;-59
2023/12/23 05:11:36;;;;;;;1.00;0.63;;;8.80;99.90;;;;;;5030979;28;20198;-60
2023/12/23 05:14:05;;;;;;;1.50;0.47;;;8.80;99.90;;;;;;5031548;28;20202;-60
2023/12/23 05:16:33;;;;;;;5.03;0.73;;;8.80;99.90;;;;;;5030584;28;20738;-60
2023/12/23 05:19:01;;;;;;;3.72;0.50;;;8.80;99.90;;;;;;5031354;28;20203;-60
2023/12/23 05:21:30;;;;;;;3.65;0.70;;;8.80;99.90;;;;;;5031061;28;20273;-60
2023/12/23 05:23:58;;;;;;;2.42;0.75;;;8.80;99.90;;;;;;5031710;28;20636;-60
2023/12/23 05:26:26;;;;;;;3.10;0.50;;;8.80;99.90;;;;;;5030483;28;20254;-61
2023/12/23 05:28:54;;;;;;;7.97;1.20;;;8.90;99.90;;;;;;5031362;28;20210;-61
2023/12/23 05:31:23;;;;;;;1.80;0.70;;;8.90;99.90;;;;;;5030815;28;20292;-61
2023/12/23 05:33:55;;;;;;;3.08;0.75;;;8.90;99.90;;;;;;5028308;28;20298;-60
2023/12/23 05:36:23;;;;;;;3.00;0.50;;;8.90;99.90;;;;;;5027850;28;20236;-61
2023/12/23 05:38:51;;;;;;;5.18;0.98;;;8.90;99.90;;;;;;5031066;28;20306;-61
2023/12/23 05:41:19;;;;;;;5.50;0.45;;;8.90;99.90;;;;;;5030877;28;20199;-61
2023/12/23 05:43:47;;;;;;;0.60;0.35;;;8.90;99.90;;;;;;5032969;28;20601;-60
2023/12/23 05:46:15;;;;;;;2.05;0.50;;;8.90;99.90;;;;;;5034875;28;20296;-60
2023/12/23 05:48:44;;;;;;;2.30;0.50;;;8.80;99.90;;;;;;5027360;28;20249;-61
2023/12/23 05:51:13;;;;;;;1.40;0.45;;;8.80;99.90;;;;;;5034500;28;20219;-61
2023/12/23 05:53:41;;;;;;;0.40;0.30;;;8.80;99.90;;;;;;5035230;28;20234;-61
2023/12/23 05:56:09;;;;;;;3.20;0.38;;;8.80;99.90;;;;;;5034555;28;20695;-61
2023/12/23 05:58:37;;;;;;;3.05;0.57;;;8.70;99.90;;;;;;5034733;28;20213;-61
2023/12/23 06:01:06;;;;;;;1.88;0.30;;;8.70;99.90;;;;;;5034497;28;20203;-61
2023/12/23 06:03:34;;;;;;;0.40;0.38;;;8.80;99.90;;;;;;5034693;28;20297;-60
2023/12/23 06:06:04;;;;;;;1.38;0.40;;;8.80;99.90;;;;;;5033940;28;20758;-60
2023/12/23 06:08:32;;;;;;;2.33;0.30;;;8.80;99.90;;;;;;5034480;28;20222;-61
2023/12/23 06:11:00;;;;;;;1.27;0.30;;;8.80;99.90;;;;;;5031671;28;20289;-61
2023/12/23 06:13:31;;;;;;;0.75;0.20;;;8.80;99.90;;;;;;5032504;28;20285;-60
2023/12/23 06:16:04;;;;;;;3.75;0.22;;;8.90;99.90;;;;;;5033406;28;20222;-61
2023/12/23 06:18:32;;;;;;;1.55;0.30;;;8.90;99.90;;;;;;5033989;28;20302;-60
2023/12/23 06:21:00;;;;;;;2.30;0.40;;;9.00;99.90;;;;;;5034477;28;20202;-59
2023/12/23 06:23:30;;;;;;;1.38;0.30;;;9.00;99.90;;;;;;5034087;28;20641;-60
2023/12/23 06:25:58;;;;;;;1.40;0.30;;;9.00;99.90;;;;;;5033369;28;20226;-61
2023/12/23 06:28:26;;;;;;;2.28;0.30;;;9.00;99.90;;;;;;5033529;28;20203;-59
2023/12/23 06:30:53;;;;;;;2.90;0.30;;;9.10;99.90;;;;;;5033406;28;20227;-61
2023/12/23 06:33:21;;;;;;;0.80;0.40;;;9.10;99.90;;;;;;5032852;28;20695;-61
2023/12/23 06:35:49;;;;;;;1.58;0.60;;;9.10;99.90;;;;;;5032883;28;20738;-61
2023/12/23 06:38:18;;;;;;;3.85;0.80;;;9.00;99.90;;;;;;5033662;28;20736;-61
2023/12/23 06:40:47;;;;;;;3.72;0.50;;;9.00;99.90;;;;;;5033165;28;20586;-61
2023/12/23 06:43:15;;;;;;;1.23;0.95;;;9.00;99.90;;;;;;5033634;28;20213;-61
2023/12/23 06:46:03;;;;;;;2.30;0.80;;;9.00;99.90;;;;;;5032833;28;20595;-61
2023/12/23 06:48:31;;;;;;;3.63;0.60;;;9.10;99.90;;;;;;5032404;28;20683;-60
2023/12/23 06:51:01;;;;;;;1.60;0.70;;;9.10;99.90;;;;;;5033031;28;20223;-61
2023/12/23 06:53:29;;;;;;;2.88;0.80;;;9.20;99.90;;;;;;5032747;28;20207;-61
2023/12/23 06:55:58;;;;;;;1.85;0.40;;;9.10;99.90;;;;;;5031870;28;20230;-60
2023/12/23 06:58:27;;;;;;;3.08;0.50;;;9.10;99.90;;;;;;5033217;28;20645;-61
2023/12/23 07:00:55;;;;;;;2.35;0.77;;;9.10;99.90;;;;;;5033237;28;20703;-62
2023/12/23 07:03:23;;;;;;;2.33;0.50;;;9.10;99.90;;;;;;5033793;28;20663;-62
2023/12/23 07:05:51;;;;;;;0.68;0.35;;;9.00;99.90;;;;;;5029623;28;20698;-62
2023/12/23 07:08:19;;;;;;;3.40;0.60;;;9.10;99.90;;;;;;5032971;28;20205;-62
2023/12/23 07:10:47;;;;;;;2.88;0.50;;;9.10;99.90;;;;;;5033524;28;20313;-62
2023/12/23 07:13:17;;;;;;;4.35;0.65;;;9.00;99.90;;;;;;5033392;28;20207;-62
2023/12/23 07:15:44;;;;;;;1.45;0.50;;;9.00;99.90;;;;;;5033031;28;20466;-62
2023/12/23 07:18:12;;;;;;;3.60;0.50;;;9.10;99.90;;;;;;5033421;28;20213;-62
2023/12/23 07:20:42;;;;;;;3.35;0.82;;;9.10;99.90;;;;;;5032895;28;20207;-62
2023/12/23 07:23:10;;;;;;;4.90;0.70;;;9.00;99.90;;;;;;5033521;28;20199;-62
2023/12/23 07:25:38;;;;;;;2.60;0.50;;;9.10;99.90;;;;;;5032404;28;20216;-62
2023/12/23 07:28:06;;;;;;;1.60;0.40;;;9.00;99.90;;;;;;5032499;28;20206;-62
2023/12/23 07:30:40;;;;;;;7.63;1.00;;;9.10;99.90;;;;;;5032514;28;20390;-62
2023/12/23 07:33:08;;;;;;;2.60;0.57;;;9.10;99.90;;;;;;5032417;28;20235;-62
2023/12/23 07:35:36;;;;;;;3.53;0.60;;;9.00;99.90;;;;;;5031800;28;20642;-61
2023/12/23 07:38:05;;;;;;;0.68;0.50;;;9.00;99.90;;;;;;5031269;28;20215;-62
2023/12/23 07:40:35;;;;;;;6.63;0.70;;;9.00;99.90;;;;;;5031738;28;20209;-62
2023/12/23 07:43:03;;;;;;;5.72;0.70;;;8.90;99.90;;;;;;5031412;28;20233;-62
2023/12/23 07:45:31;;;;;;;4.68;0.93;;;8.90;99.90;;;;;;5031184;28;20589;-62
2023/12/23 07:48:00;;;;;;;3.20;0.60;;;8.90;99.90;;;;;;5030589;28;20304;-62
2023/12/23 07:50:28;;;;;;;3.92;0.82;;;8.90;99.90;;;;;;5031856;28;20229;-62
2023/12/23 07:52:56;;;;;;;5.13;0.38;;;8.80;99.90;;;;;;5028361;28;20207;-62
2023/12/23 07:55:24;;;;;;;4.28;0.82;;;8.90;99.90;;;;;;5032437;28;20206;-62
2023/12/23 07:57:52;;;;;;;4.80;0.52;;;8.90;99.90;;;;;;5024247;28;20218;-62
2023/12/23 08:00:20;;;;;;;4.53;0.60;;;8.90;99.90;;;;;;5031978;28;20629;-62
2023/12/23 08:02:48;;;;;;;3.40;0.55;;;8.90;99.90;;;;;;5031927;28;20245;-62
2023/12/23 08:05:19;;;;;;;1.85;0.68;;;8.90;99.90;;;;;;5032077;28;20215;-62
2023/12/23 08:07:47;;;;;;;4.28;0.50;;;8.90;99.90;;;;;;5031073;28;20305;-62
2023/12/23 08:10:16;;;;;;;2.47;0.65;;;8.90;99.90;;;;;;5032000;28;20203;-62
2023/12/23 08:12:45;;;;;;;2.90;0.70;;;8.90;99.90;;;;;;5031709;28;20227;-62
2023/12/23 08:15:13;;;;;;;2.85;0.60;;;8.90;99.90;;;;;;5031770;28;20269;-62
2023/12/23 08:17:40;;;;;;;6.78;0.85;;;8.90;99.90;;;;;;5031407;28;20309;-62
2023/12/23 08:20:09;;;;;;;3.00;0.70;;;8.90;99.90;;;;;;5032133;28;20396;-62
2023/12/23 08:22:38;;;;;;;3.30;0.90;;;8.90;99.90;;;;;;5031754;28;20648;-62
2023/12/23 08:25:06;;;;;;;2.75;0.50;;;8.90;99.90;;;;;;5031849;28;20285;-62
2023/12/23 08:27:34;;;;;;;3.13;0.50;;;9.00;99.90;;;;;;5031310;28;20325;-62
2023/12/23 08:30:02;;;;;;;2.38;0.40;;;9.00;99.90;;;;;;5031874;28;20260;-62
2023/12/23 08:32:30;;;;;;;3.83;0.57;;;9.00;99.90;;;;;;5031056;28;20219;-62
2023/12/23 08:34:58;;;;;;;1.85;0.52;;;9.00;99.90;;;;;;5031552;28;20202;-62
2023/12/23 08:37:26;;;;;;;1.08;0.57;;;9.10;99.90;;;;;;5028222;28;20311;-62
2023/12/23 08:39:56;;;;;;;8.32;0.90;;;9.10;99.90;;;;;;5023857;28;20203;-62
2023/12/23 08:42:24;;;;;;;1.98;0.40;;;9.10;99.90;;;;;;5031694;28;20226;-62
2023/12/23 08:44:52;;;;;;;3.65;0.40;;;9.10;99.90;;;;;;5031643;28;20229;-62
2023/12/23 08:47:20;;;;;;;3.67;0.40;;;9.10;99.90;;;;;;5030626;28;20232;-62
2023/12/23 08:49:48;;;;;;;3.67;0.60;;;9.20;99.90;;;;;;5030641;28;20214;-62
2023/12/23 08:52:15;;;;;;;3.38;0.55;;;9.20;99.90;;;;;;5030195;28;20314;-62
2023/12/23 08:54:43;;;;;;;2.47;0.40;;;9.20;99.90;;;;;;5030775;28;20215;-62
2023/12/23 08:57:12;;;;;;;1.67;0.50;;;9.20;99.90;;;;;;5030037;28;20301;-62
2023/12/23 08:59:40;;;;;;;0.38;0.32;;;9.20;99.90;;;;;;5031144;28;20294;-62
2023/12/23 09:02:08;;;;;;;1.92;0.32;;;9.20;99.90;;;;;;5031287;28;20227;-62
2023/12/23 09:04:36;;;;;;;0.30;0.22;;;9.20;99.90;;;;;;5031334;28;20214;-63
2023/12/23 09:07:04;;;;;;;2.95;0.65;;;9.20;99.90;;;;;;5030793;28;20828;-62
2023/12/23 09:09:32;;;;;;;1.63;0.40;;;9.20;99.90;;;;;;5030984;28;20241;-62
2023/12/23 09:12:00;;;;;;;0.95;0.30;;;9.20;99.90;;;;;;5030916;28;20699;-62
2023/12/23 09:14:29;;;;;;;0.15;0.15;;;9.20;99.90;;;;;;5031083;28;20226;-62
2023/12/23 09:16:57;;;;;;;1.33;0.20;;;9.20;99.90;;;;;;5023471;28;20229;-62
2023/12/23 09:19:25;;;;;;;1.90;0.30;;;9.20;99.90;;;;;;5030549;28;20565;-62
2023/12/23 09:21:55;;;;;;;0.98;0.47;;;9.30;99.90;;;;;;5029375;28;20644;-62
2023/12/23 09:24:23;;;;;;;1.85;0.30;;;9.30;99.90;;;;;;5030474;28;20728;-62
2023/12/23 09:26:51;;;;;;;1.00;0.38;;;9.30;99.90;;;;;;5029719;28;20219;-62
2023/12/23 09:29:19;;;;;;;0.95;0.38;;;9.30;99.90;;;;;;5030742;28;20268;-62
2023/12/23 09:31:48;;;;;;;0.85;0.20;;;9.40;99.90;;;;;;5030164;28;20516;-62
2023/12/23 09:34:16;;;;;;;0.60;0.40;;;9.40;99.90;;;;;;5030953;28;20211;-62
2023/12/23 09:36:44;;;;;;;0.20;0.20;;;9.40;99.90;;;;;;5057210;22;20661;-63
2023/12/23 09:39:12;;;;;;;0.93;0.15;;;9.40;99.90;;;;;;5050978;28;20233;-63
2023/12/23 09:41:40;;;;;;;0.68;0.20;;;9.40;99.90;;;;;;5050469;28;20236;-64
2023/12/23 09:44:08;;;;;;;0.05;0.05;;;9.50;99.90;;;;;;5049188;28;20293;-64
2023/12/23 09:46:37;;;;;;;0.10;0.10;;;9.50;99.90;;;;;;5048956;28;22065;-63
2023/12/23 09:49:06;;;;;;;0.28;0.10;;;9.50;99.90;;;;;;5050607;28;20230;-63
2023/12/23 09:51:34;;;;;;;0.35;0.10;;;9.60;99.90;;;;;;5045438;28;20228;-63
2023/12/23 09:54:03;;;;;;;0.10;0.10;;;9.60;99.90;;;;;;5046950;28;20254;-63
2023/12/23 09:56:31;;;;;;;0.88;0.10;;;9.60;99.90;;;;;;5042324;28;20206;-62
2023/12/23 09:58:59;;;;;;;0.10;0.10;;;9.70;99.90;;;;;;5046264;28;20207;-63
2023/12/23 10:01:27;;;;;;;2.08;0.20;;;9.70;99.90;;;;;;5032419;28;20774;-64
2023/12/23 10:03:55;;;;;;;2.75;0.20;;;9.70;99.90;;;;;;5039481;28;20202;-63
2023/12/23 10:06:25;;;;;;;0.73;0.13;;;9.80;99.90;;;;;;5046035;28;20201;-64
2023/12/23 10:08:53;;;;;;;0.10;0.10;;;9.80;99.90;;;;;;5043595;28;20209;-64
2023/12/23 10:11:20;;;;;;;0.73;0.28;;;9.80;99.90;;;;;;5042389;28;20662;-64
2023/12/23 10:13:48;;;;;;;4.28;0.20;;;9.80;99.90;;;;;;5043085;28;20587;-64
2023/12/23 10:16:16;;;;;;;0.10;0.10;;;9.90;99.90;;;;;;5044507;28;20206;-64
2023/12/23 10:18:46;;;;;;;0.10;0.10;;;9.90;99.90;;;;;;5040846;28;20217;-63
2023/12/23 10:21:14;;;;;;;0.15;0.15;;;9.90;99.90;;;;;;5042465;28;20202;-63
2023/12/23 10:23:43;;;;;;;0.10;0.10;;;9.90;99.90;;;;;;5041130;28;20232;-62
2023/12/23 10:26:11;;;;;;;0.20;0.10;;;9.90;99.90;;;;;;5038844;28;20238;-62
2023/12/23 10:28:39;;;;;;;0.10;0.10;;;10.00;99.90;;;;;;5039998;28;20230;-62
2023/12/23 10:31:07;;;;;;;0.50;0.10;;;10.00;99.90;;;;;;5045552;28;20226;-62
2023/12/23 10:33:37;;;;;;;0.20;0.10;;;10.00;99.90;;;;;;5045652;28;20759;-62
2023/12/23 10:36:06;;;;;;;0.22;0.10;;;10.00;99.90;;;;;;5046293;28;20209;-62
2023/12/23 10:38:35;;;;;;;0.40;0.22;;;10.00;99.90;;;;;;5046505;28;20331;-63
2023/12/23 10:41:09;;;;;;;0.13;0.13;;;10.10;99.90;;;;;;5046023;28;20295;-62
2023/12/23 10:43:37;;;;;;;0.10;0.10;;;10.10;99.90;;;;;;5045700;28;20344;-62
2023/12/23 10:46:05;;;;;;;0.20;0.10;;;10.10;99.90;;;;;;5042578;28;20297;-62
2023/12/23 10:48:33;;;;;;;0.22;0.15;;;10.20;99.90;;;;;;5042020;28;20227;-63
2023/12/23 10:51:01;;;;;;;0.52;0.10;;;10.20;99.90;;;;;;5047540;28;20229;-63
2023/12/23 10:53:30;;;;;;;0.43;0.17;;;10.30;99.90;;;;;;5037930;28;20710;-63
2023/12/23 10:55:58;;;;;;;1.02;0.20;;;10.20;99.90;;;;;;5042078;28;20701;-62
2023/12/23 10:58:27;;;;;;;0.10;0.10;;;10.20;99.90;;;;;;5042274;28;20246;-62
2023/12/23 11:00:55;;;;;;;0.20;0.15;;;10.20;99.90;;;;;;5044871;28;20619;-62
2023/12/23 11:03:24;;;;;;;0.00;0.00;;;10.10;99.90;;;;;;5045236;28;20198;-62
2023/12/23 11:05:52;;;;;;;0.10;0.10;;;10.10;99.90;;;;;;5049948;28;20206;-62
2023/12/23 11:08:21;;;;;;;0.60;0.10;;;10.00;99.90;;;;;;5048156;28;20221;-62
2023/12/23 11:10:49;;;;;;;1.92;0.20;;;10.00;99.90;;;;;;5045615;28;20211;-62
2023/12/23 11:13:17;;;;;;;1.85;0.30;;;9.90;99.90;;;;;;5045222;28;20275;-62
2023/12/23 11:15:47;;;;;;;3.10;0.20;;;9.80;99.90;;;;;;5043933;28;20628;-62
2023/12/23 11:18:15;;;;;;;0.28;0.20;;;9.80;99.90;;;;;;5047160;28;20254;-62
2023/12/23 11:20:44;;;;;;;0.38;0.20;;;9.80;99.90;;;;;;5045121;28;20675;-63
2023/12/23 11:23:31;;;;;;;0.65;0.40;;;9.80;99.90;;;;;;5045156;28;20205;-62
2023/12/23 11:25:59;;;;;;;0.32;0.20;;;9.80;99.90;;;;;;5041621;28;20207;-62
2023/12/23 11:28:28;;;;;;;0.68;0.20;;;9.80;99.90;;;;;;5041561;28;20226;-62
2023/12/23 11:30:58;;;;;;;0.30;0.30;;;9.90;99.90;;;;;;5044339;28;20211;-62
2023/12/23 11:33:27;;;;;;;0.20;0.20;;;9.90;99.90;;;;;;5044632;28;20694;-62
2023/12/23 11:35:56;;;;;;;0.98;0.50;;;9.90;99.90;;;;;;5044320;28;20206;-62
2023/12/23 11:38:28;;;;;;;0.63;0.30;;;9.90;99.90;;;;;;5046539;28;20253;-62
2023/12/23 11:40:56;;;;;;;1.20;0.20;;;10.00;99.90;;;;;;5044196;28;20238;-62
2023/12/23 11:43:24;;;;;;;0.40;0.40;;;10.00;99.90;;;;;;5044227;28;20198;-63
2023/12/23 11:45:52;;;;;;;0.47;0.40;;;10.10;99.90;;;;;;5049676;28;20237;-62
2023/12/23 11:48:22;;;;;;;0.30;0.30;;;10.10;99.90;;;;;;5041327;28;20280;-62
2023/12/23 11:50:55;;;;;;;0.28;0.28;;;10.10;99.90;;;;;;5043187;28;20238;-62
2023/12/23 11:53:23;;;;;;;1.50;0.30;;;10.10;99.90;;;;;;5044420;28;20309;-63
2023/12/23 11:55:51;;;;;;;0.30;0.30;;;10.20;99.90;;;;;;5050650;28;20216;-63
2023/12/23 11:58:19;;;;;;;1.80;0.30;;;10.20;99.90;;;;;;5041143;28;20227;-62
2023/12/23 12:00:51;;;;;;;1.42;0.40;;;10.20;99.90;;;;;;5042502;28;20237;-63
2023/12/23 12:03:20;;;;;;;1.23;0.32;;;10.20;99.90;;;;;;5044492;28;20197;-62
2023/12/23 12:05:49;;;;;;;2.25;0.60;;;10.20;99.90;;;;;;5050876;28;20293;-64
2023/12/23 12:08:17;;;;;;;4.20;0.73;;;10.20;99.90;;;;;;5040654;28;20233;-62
2023/12/23 12:10:45;;;;;;;1.25;0.40;;;10.30;99.90;;;;;;5044479;28;20202;-62
2023/12/23 12:13:13;;;;;;;4.68;0.90;;;10.30;99.90;;;;;;5042514;28;20699;-63
2023/12/23 12:15:41;;;;;;;2.20;0.45;;;10.40;99.90;;;;;;5041084;28;20238;-62
2023/12/23 12:18:11;;;;;;;0.65;0.30;;;10.40;99.90;;;;;;5042922;28;20232;-63
2023/12/23 12:20:41;;;;;;;3.22;0.50;;;10.40;99.90;;;;;;5043896;28;20253;-63
2023/12/23 12:23:08;;;;;;;2.65;0.50;;;10.40;99.90;;;;;;5043895;28;20198;-63
2023/12/23 12:25:36;;;;;;;2.97;0.88;;;10.40;99.90;;;;;;5043983;28;20275;-63
2023/12/23 12:28:05;;;;;;;2.35;0.40;;;10.40;99.90;;;;;;5037485;28;20250;-63
2023/12/23 12:30:33;;;;;;;3.95;0.50;;;10.40;99.90;;;;;;5044936;28;20202;-63
2023/12/23 12:33:01;;;;;;;3.35;0.55;;;10.40;99.90;;;;;;5036934;28;20308;-63
2023/12/23 12:35:30;;;;;;;2.85;0.65;;;10.30;99.90;;;;;;5045582;28;20203;-63
2023/12/23 12:38:00;;;;;;;4.00;0.70;;;10.40;99.90;;;;;;5045491;28;20230;-63
2023/12/23 12:40:38;;;;;;;3.45;0.80;;;10.40;99.90;;;;;;5044095;28;20206;-64
2023/12/23 12:43:06;;;;;;;1.95;0.57;;;10.40;99.90;;;;;;5045806;28;20236;-63
2023/12/23 12:45:37;;;;;;;3.42;0.68;;;10.40;99.90;;;;;;5043485;28;20210;-63
2023/12/23 12:48:10;;;;;;;5.40;0.55;;;10.50;99.90;;;;;;5037718;28;20785;-63
2023/12/23 12:50:39;;;;;;;1.92;0.60;;;10.50;99.90;;;;;;5040886;28;20210;-63
2023/12/23 12:53:09;;;;;;;3.42;0.60;;;10.50;99.90;;;;;;5039143;28;20294;-63
2023/12/23 12:55:37;;;;;;;2.85;0.50;;;10.60;99.90;;;;;;5042257;28;20211;-63
2023/12/23 12:58:05;;;;;;;1.92;0.50;;;10.50;99.90;;;;;;5042096;28;20651;-63
2023/12/23 13:00:33;;;;;;;4.22;0.40;;;10.50;99.90;;;;;;5037986;28;20256;-63